Time;durP1;ratioP1;P1;durP2;ratioP2;P2;SDS_P1;SDS_P2;PMS_P1;PMS_P2;Temp;Humidity;BMP_temperature;BMP_pressure;BME280_temperature;BME280_humidity;BME280_pressure;Samples;Min_cycle;Max_cycle;Signal;HPM_P1;HPM_P2
2022/07/19 00:00:10;;;;;;;;;;;;;;;21.83;47.48;101822.66;5061136;28;19921;-55
2022/07/19 00:02:36;;;;;;;;;;;;;;;21.80;47.77;101828.28;5051294;28;20015;-56
2022/07/19 00:05:01;;;;;;;;;;;;;;;21.78;47.81;101827.56;5061535;28;19916;-55
2022/07/19 00:07:27;;;;;;;;;;;;;;;21.77;47.83;101831.22;5055685;28;20015;-54
2022/07/19 00:09:52;;;;;;;;;;;;;;;21.77;47.78;101833.91;5049802;28;19912;-54
2022/07/19 00:12:17;;;;;;;;;;;;;;;21.77;47.66;101829.41;5059650;28;19984;-56
2022/07/19 00:14:43;;;;;;;;;;;;;;;21.76;48.05;101829.53;5053873;28;19921;-58
2022/07/19 00:17:08;;;;;;;;;;;;;;;21.73;47.87;101827.97;5052858;28;19966;-56
2022/07/19 00:19:33;;;;;;;;;;;;;;;21.72;48.04;101820.06;5050730;28;19916;-57
2022/07/19 00:21:59;;;;;;;;;;;;;;;21.71;47.87;101823.72;5052889;28;19928;-55
2022/07/19 00:24:24;;;;;;;;;;;;;;;21.68;48.11;101824.03;5051660;28;19948;-55
2022/07/19 00:26:49;;;;;;;;;;;;;;;21.65;48.29;101825.13;5057507;28;20046;-53
2022/07/19 00:29:14;;;;;;;;;;;;;;;21.61;48.09;101818.34;5054308;28;19923;-52
2022/07/19 00:31:40;;;;;;;;;;;;;;;21.56;48.28;101821.38;5053423;28;20382;-54
2022/07/19 00:34:05;;;;;;;;;;;;;;;21.56;48.20;101820.53;5056009;28;19970;-53
2022/07/19 00:36:30;;;;;;;;;;;;;;;21.53;48.31;101816.31;5053672;28;19967;-53
2022/07/19 00:38:56;;;;;;;;;;;;;;;21.53;48.28;101810.97;5051854;28;19920;-54
2022/07/19 00:41:21;;;;;;;;;;;;;;;21.52;48.58;101819.97;5050790;28;20390;-53
2022/07/19 00:43:46;;;;;;;;;;;;;;;21.51;48.49;101810.25;5054332;28;19913;-54
2022/07/19 00:46:16;;;;;;;;;;;;;;;21.50;48.50;101813.91;5054149;28;19935;-52
2022/07/19 00:48:42;;;;;;;;;;;;;;;21.47;48.45;101811.50;5053778;28;19928;-53
2022/07/19 00:51:08;;;;;;;;;;;;;;;21.44;48.83;101814.44;5051878;28;19954;-53
2022/07/19 00:53:35;;;;;;;;;;;;;;;21.37;48.82;101810.59;5050162;28;19917;-54
2022/07/19 00:56:03;;;;;;;;;;;;;;;21.32;48.82;101808.34;5054650;28;20007;-53
2022/07/19 00:58:28;;;;;;;;;;;;;;;21.30;49.07;101810.28;5049714;28;19916;-53
2022/07/19 01:00:54;;;;;;;;;;;;;;;21.26;49.05;101804.34;5056686;28;19940;-54
2022/07/19 01:03:20;;;;;;;;;;;;;;;21.24;48.97;101809.00;5053369;28;19962;-55
2022/07/19 01:05:46;;;;;;;;;;;;;;;21.18;49.08;101806.84;5055880;28;19915;-53
2022/07/19 01:08:12;;;;;;;;;;;;;;;21.09;49.30;101816.50;5050994;28;19920;-53
2022/07/19 01:10:37;;;;;;;;;;;;;;;21.04;49.63;101815.22;5050622;28;19920;-54
2022/07/19 01:13:02;;;;;;;;;;;;;;;20.96;49.67;101816.69;5051300;28;20288;-54
2022/07/19 01:15:28;;;;;;;;;;;;;;;20.95;49.73;101827.53;5053120;28;19924;-53
2022/07/19 01:17:53;;;;;;;;;;;;;;;20.96;49.51;101816.69;5044678;28;20368;-53
2022/07/19 01:20:20;;;;;;;;;;;;;;;20.98;49.54;101822.78;5052402;28;19947;-56
2022/07/19 01:22:46;;;;;;;;;;;;;;;20.97;49.87;101821.06;5055575;28;19916;-53
2022/07/19 01:25:11;;;;;;;;;;;;;;;20.96;49.71;101824.72;5048400;28;20020;-55
2022/07/19 01:27:40;;;;;;;;;;;;;;;20.95;49.54;101825.69;5049276;28;19917;-52
2022/07/19 01:30:12;;;;;;;;;;;;;;;20.92;49.62;101812.63;5050952;28;19917;-54
2022/07/19 01:32:38;;;;;;;;;;;;;;;20.86;49.84;101813.13;5053758;28;19912;-56
2022/07/19 01:35:04;;;;;;;;;;;;;;;20.85;50.14;101822.13;5050674;28;19920;-56
2022/07/19 01:37:29;;;;;;;;;;;;;;;20.81;50.08;101815.34;5052861;28;19923;-53
2022/07/19 01:39:56;;;;;;;;;;;;;;;20.80;50.10;101813.63;5051577;28;19917;-53
2022/07/19 01:42:23;;;;;;;;;;;;;;;20.78;49.89;101810.25;5045849;28;19959;-53
2022/07/19 01:44:49;;;;;;;;;;;;;;;20.76;50.21;101806.88;5046009;28;19920;-53
2022/07/19 01:47:14;;;;;;;;;;;;;;;20.74;50.23;101809.63;5049792;28;19928;-55
2022/07/19 01:49:39;;;;;;;;;;;;;;;20.71;50.55;101813.41;5029884;28;19963;-53
2022/07/19 01:52:05;;;;;;;;;;;;;;;20.69;50.39;101801.16;5051252;28;19956;-57
2022/07/19 01:54:30;;;;;;;;;;;;;;;20.68;50.61;101805.63;5050350;28;20403;-55
2022/07/19 01:56:55;;;;;;;;;;;;;;;20.63;50.61;101807.88;5054795;28;19922;-52
2022/07/19 01:59:20;;;;;;;;;;;;;;;20.57;50.43;101800.34;5056361;28;19916;-55
2022/07/19 02:01:46;;;;;;;;;;;;;;;20.58;50.42;101793.16;5056117;28;19943;-53
2022/07/19 02:04:11;;;;;;;;;;;;;;;20.55;50.77;101796.97;5036128;28;19999;-53
2022/07/19 02:06:36;;;;;;;;;;;;;;;20.55;50.59;101788.94;5049647;28;19916;-56
2022/07/19 02:09:02;;;;;;;;;;;;;;;20.54;50.89;101792.59;5050090;28;19916;-53
2022/07/19 02:11:37;;;;;;;;;;;;;;;20.52;50.69;101794.53;5055976;28;19916;-53
2022/07/19 02:14:07;;;;;;;;;;;;;;;20.49;50.95;101786.78;5046749;28;19978;-53
2022/07/19 02:16:33;;;;;;;;;;;;;;;20.49;51.03;101784.97;5052849;28;19954;-52
2022/07/19 02:18:59;;;;;;;;;;;;;;;20.50;51.10;101781.31;5045849;28;19916;-54
2022/07/19 02:21:24;;;;;;;;;;;;;;;20.47;51.14;101784.22;5052924;28;19922;-52
2022/07/19 02:23:49;;;;;;;;;;;;;;;20.45;50.88;101788.03;5056109;28;20383;-52
2022/07/19 02:26:15;;;;;;;;;;;;;;;20.40;51.02;101786.56;5055846;28;19913;-53
2022/07/19 02:28:40;;;;;;;;;;;;;;;20.36;51.18;101784.28;5043187;28;19990;-54
2022/07/19 02:31:05;;;;;;;;;;;;;;;20.30;51.45;101787.47;5054250;28;20337;-53
2022/07/19 02:33:31;;;;;;;;;;;;;;;20.23;51.55;101787.97;5053759;28;19916;-54
2022/07/19 02:35:56;;;;;;;;;;;;;;;20.21;51.62;101791.72;5051014;28;19940;-53
2022/07/19 02:38:21;;;;;;;;;;;;;;;20.22;51.37;101782.75;5050427;28;19951;-54
2022/07/19 02:40:47;;;;;;;;;;;;;;;20.25;51.44;101794.06;5047968;28;19913;-53
2022/07/19 02:43:12;;;;;;;;;;;;;;;20.22;51.82;101780.06;5049711;28;20334;-53
2022/07/19 02:45:37;;;;;;;;;;;;;;;20.19;51.91;101793.72;5049288;28;19920;-52
2022/07/19 02:48:04;;;;;;;;;;;;;;;20.17;51.92;101784.97;5047216;28;20012;-54
2022/07/19 02:50:30;;;;;;;;;;;;;;;20.14;52.12;101786.06;5052069;28;20015;-53
2022/07/19 02:52:55;;;;;;;;;;;;;;;20.08;52.00;101781.22;5045776;28;20391;-53
2022/07/19 02:55:20;;;;;;;;;;;;;;;20.03;52.10;101786.94;5056340;28;19913;-53
2022/07/19 02:57:46;;;;;;;;;;;;;;;19.98;52.58;101789.13;5051651;28;19913;-54
2022/07/19 03:00:12;;;;;;;;;;;;;;;19.93;52.57;101785.97;5051665;28;19927;-53
2022/07/19 03:02:38;;;;;;;;;;;;;;;19.94;52.61;101790.34;5047768;28;19917;-53
2022/07/19 03:05:03;;;;;;;;;;;;;;;19.95;52.72;101797.41;5054982;28;19921;-54
2022/07/19 03:07:29;;;;;;;;;;;;;;;19.93;52.61;101789.53;5052735;28;20379;-54
2022/07/19 03:09:54;;;;;;;;;;;;;;;19.93;52.94;101794.00;5056873;28;19959;-53
2022/07/19 03:12:19;;;;;;;;;;;;;;;19.90;52.67;101794.25;5049611;28;19917;-53
2022/07/19 03:14:44;;;;;;;;;;;;;;;19.89;53.01;101795.25;5049388;28;19948;-54
2022/07/19 03:17:10;;;;;;;;;;;;;;;19.87;53.13;101800.69;5050676;28;20273;-53
2022/07/19 03:19:35;;;;;;;;;;;;;;;19.84;53.38;101798.22;5051976;28;20452;-54
2022/07/19 03:22:00;;;;;;;;;;;;;;;19.85;53.42;101791.09;5047438;28;19916;-53
2022/07/19 03:24:26;;;;;;;;;;;;;;;19.83;53.60;101790.34;5051898;28;19919;-53
2022/07/19 03:26:51;;;;;;;;;;;;;;;19.81;53.60;101785.16;5046209;28;20007;-57
2022/07/19 03:29:16;;;;;;;;;;;;;;;19.83;53.51;101798.38;5049270;28;19921;-52
2022/07/19 03:31:42;;;;;;;;;;;;;;;19.85;53.36;101791.09;5050292;28;19966;-55
2022/07/19 03:34:07;;;;;;;;;;;;;;;19.87;53.69;101791.84;5054519;28;19916;-55
2022/07/19 03:36:32;;;;;;;;;;;;;;;19.84;53.65;101795.56;5052578;28;19913;-53
2022/07/19 03:38:57;;;;;;;;;;;;;;;19.82;53.64;101791.31;5028232;28;20107;-55
2022/07/19 03:41:23;;;;;;;;;;;;;;;19.80;53.84;101794.13;5043632;28;19920;-52
2022/07/19 03:43:48;;;;;;;;;;;;;;;19.78;53.91;101788.88;5045859;28;19921;-53
2022/07/19 03:46:13;;;;;;;;;;;;;;;19.78;53.91;101791.56;5048725;28;19916;-56
2022/07/19 03:48:39;;;;;;;;;;;;;;;19.80;54.19;101781.59;5048933;28;19931;-53
2022/07/19 03:51:04;;;;;;;;;;;;;;;19.81;53.97;101785.16;5049690;28;20346;-54
2022/07/19 03:53:29;;;;;;;;;;;;;;;19.82;53.97;101786.81;5050888;28;19952;-58
2022/07/19 03:55:55;;;;;;;;;;;;;;;19.84;53.69;101782.19;5047818;28;19917;-53
2022/07/19 03:58:20;;;;;;;;;;;;;;;19.86;53.92;101788.28;5048760;28;20440;-54
2022/07/19 04:00:45;;;;;;;;;;;;;;;19.87;53.85;101783.81;5051598;28;19923;-53
2022/07/19 04:03:11;;;;;;;;;;;;;;;19.89;53.70;101792.56;5054318;28;19920;-54
2022/07/19 04:05:36;;;;;;;;;;;;;;;19.87;54.12;101790.00;5046454;28;20342;-56
2022/07/19 04:08:02;;;;;;;;;;;;;;;19.87;53.88;101783.81;5050517;28;19917;-53
2022/07/19 04:10:27;;;;;;;;;;;;;;;19.86;54.07;101792.78;5048801;28;19944;-53
2022/07/19 04:12:52;;;;;;;;;;;;;;;19.82;54.04;101785.97;5082088;22;19942;-56
2022/07/19 04:15:18;;;;;;;;;;;;;;;19.79;54.47;101787.91;5075203;28;19912;-56
2022/07/19 04:17:43;;;;;;;;;;;;;;;19.80;54.16;101794.13;5077970;28;20010;-57
2022/07/19 04:20:09;;;;;;;;;;;;;;;19.82;54.47;101796.66;5062891;28;19960;-55
2022/07/19 04:22:34;;;;;;;;;;;;;;;19.84;54.35;101794.72;5066580;28;19913;-52
2022/07/19 04:25:01;;;;;;;;;;;;;;;19.87;54.12;101805.19;5056917;28;19919;-52
2022/07/19 04:27:27;;;;;;;;;;;;;;;19.85;54.12;101799.09;5072464;28;20278;-54
2022/07/19 04:29:52;;;;;;;;;;;;;;;19.87;54.32;101805.19;5071867;28;19916;-51
2022/07/19 04:32:18;;;;;;;;;;;;;;;19.89;54.25;101803.25;5068217;28;20057;-54
2022/07/19 04:34:43;;;;;;;;;;;;;;;19.93;54.34;101804.69;5064531;28;19955;-54
2022/07/19 04:37:08;;;;;;;;;;;;;;;19.94;53.92;101801.91;5069882;28;19916;-52
2022/07/19 04:39:33;;;;;;;;;;;;;;;19.99;53.79;101795.31;5069636;28;20304;-53
2022/07/19 04:41:59;;;;;;;;;;;;;;;20.02;54.05;101795.94;5070310;28;19923;-53
2022/07/19 04:44:24;;;;;;;;;;;;;;;20.04;54.22;101799.31;5074166;28;19951;-53
2022/07/19 04:46:49;;;;;;;;;;;;;;;20.09;54.04;101793.63;5073376;28;20010;-55
2022/07/19 04:49:15;;;;;;;;;;;;;;;20.09;54.04;101802.47;5080470;28;20020;-55
2022/07/19 04:51:40;;;;;;;;;;;;;;;20.12;54.15;101798.69;5065066;28;19912;-55
2022/07/19 04:54:05;;;;;;;;;;;;;;;20.15;54.07;101793.09;5074618;28;19916;-55
2022/07/19 04:56:31;;;;;;;;;;;;;;;20.21;53.96;101792.59;5071545;28;19923;-53
2022/07/19 04:58:56;;;;;;;;;;;;;;;20.28;53.98;101800.97;5071942;28;19924;-59
2022/07/19 05:01:21;;;;;;;;;;;;;;;20.33;53.72;101805.91;5057365;28;20003;-57
2022/07/19 05:03:46;;;;;;;;;;;;;;;20.37;53.64;101792.16;5069041;28;20588;-56
2022/07/19 05:06:12;;;;;;;;;;;;;;;20.40;53.52;101797.25;5069397;28;20285;-57
2022/07/19 05:08:37;;;;;;;;;;;;;;;20.43;53.40;101803.34;5076672;28;19917;-59
2022/07/19 05:11:02;;;;;;;;;;;;;;;20.47;53.29;101802.94;5069105;28;19931;-58
2022/07/19 05:13:28;;;;;;;;;;;;;;;20.51;53.31;101803.53;5073754;28;19955;-57
2022/07/19 05:15:53;;;;;;;;;;;;;;;20.56;53.31;101812.03;5077610;28;19924;-53
2022/07/19 05:18:18;;;;;;;;;;;;;;;20.61;52.97;101804.47;5073649;28;19942;-54
2022/07/19 05:20:43;;;;;;;;;;;;;;;20.67;53.05;101809.28;5078571;28;20366;-53
2022/07/19 05:23:09;;;;;;;;;;;;;;;20.70;53.00;101809.03;5071129;28;20349;-53
2022/07/19 05:25:34;;;;;;;;;;;;;;;20.78;52.68;101810.25;5076296;28;19920;-52
2022/07/19 05:27:59;;;;;;;;;;;;;;;20.82;52.77;101806.31;5078370;28;19970;-55
2022/07/19 05:30:25;;;;;;;;;;;;;;;20.87;52.15;101812.16;5076341;28;20045;-54
2022/07/19 05:32:50;;;;;;;;;;;;;;;20.93;52.10;101811.63;5073559;28;19916;-53
2022/07/19 05:35:15;;;;;;;;;;;;;;;20.97;52.18;101810.38;5072754;28;19912;-52
2022/07/19 05:37:41;;;;;;;;;;;;;;;21.04;52.14;101809.88;5051443;28;19920;-55
2022/07/19 05:40:06;;;;;;;;;;;;;;;21.09;52.23;101810.31;5065718;28;20030;-53
2022/07/19 05:42:32;;;;;;;;;;;;;;;21.14;51.91;101813.44;5064258;28;19916;-53
2022/07/19 05:44:57;;;;;;;;;;;;;;;21.19;51.96;101813.91;5069760;28;19916;-52
2022/07/19 05:47:22;;;;;;;;;;;;;;;21.23;51.65;101814.47;5071897;28;19912;-52
2022/07/19 05:49:47;;;;;;;;;;;;;;;21.25;51.66;101818.69;5073640;28;20311;-55
2022/07/19 05:52:13;;;;;;;;;;;;;;;21.29;51.60;101820.13;5069733;28;19963;-58
2022/07/19 05:54:38;;;;;;;;;;;;;;;21.36;51.57;101824.97;5074957;28;20375;-52
2022/07/19 05:57:03;;;;;;;;;;;;;;;21.42;51.51;101814.56;5072948;28;20015;-55
2022/07/19 05:59:29;;;;;;;;;;;;;;;21.47;51.53;101819.53;5077128;28;19919;-52
2022/07/19 06:01:54;;;;;;;;;;;;;;;21.52;51.60;101817.31;5068660;28;19916;-57
2022/07/19 06:04:19;;;;;;;;;;;;;;;21.58;51.22;101815.91;5072154;28;20397;-52
2022/07/19 06:06:45;;;;;;;;;;;;;;;21.62;51.34;101820.06;5071906;28;19917;-52
2022/07/19 06:09:11;;;;;;;;;;;;;;;21.68;51.41;101818.66;5076363;28;19931;-51
2022/07/19 06:11:38;;;;;;;;;;;;;;;21.72;51.08;101818.25;5071694;28;19966;-54
2022/07/19 06:14:05;;;;;;;;;;;;;;;21.77;51.14;101823.19;5072996;28;19934;-52
2022/07/19 06:16:30;;;;;;;;;;;;;;;21.80;51.35;101814.88;5069687;28;20366;-53
2022/07/19 06:18:55;;;;;;;;;;;;;;;21.83;51.08;101817.31;5052217;28;20202;-52
2022/07/19 06:21:21;;;;;;;;;;;;;;;21.87;51.28;101824.06;5067522;28;19916;-52
2022/07/19 06:23:47;;;;;;;;;;;;;;;21.92;51.08;101821.81;5068223;28;19966;-56
2022/07/19 06:26:12;;;;;;;;;;;;;;;21.97;51.50;101817.91;5048481;28;20288;-51
2022/07/19 06:28:38;;;;;;;;;;;;;;;22.00;51.43;101814.94;5065152;28;19919;-52
2022/07/19 06:31:04;;;;;;;;;;;;;;;22.05;51.14;101815.34;5070468;28;19964;-52
2022/07/19 06:33:30;;;;;;;;;;;;;;;22.08;51.32;101818.59;5067680;28;20381;-52
2022/07/19 06:35:55;;;;;;;;;;;;;;;22.12;51.12;101816.50;5069823;28;20046;-55
2022/07/19 06:38:21;;;;;;;;;;;;;;;22.18;51.12;101817.78;5066867;28;19999;-55
2022/07/19 06:40:46;;;;;;;;;;;;;;;22.21;51.16;101814.84;5068668;28;19927;-52
2022/07/19 06:43:12;;;;;;;;;;;;;;;22.25;51.17;101823.44;5068640;28;20026;-52
2022/07/19 06:45:37;;;;;;;;;;;;;;;22.28;50.84;101821.31;5071608;28;19913;-54
2022/07/19 06:48:03;;;;;;;;;;;;;;;22.33;51.05;101823.56;5071504;28;19927;-52
2022/07/19 06:50:28;;;;;;;;;;;;;;;22.36;50.93;101823.31;5070744;28;20003;-52
2022/07/19 06:52:54;;;;;;;;;;;;;;;22.41;50.91;101823.72;5067792;28;19944;-52
2022/07/19 06:55:19;;;;;;;;;;;;;;;22.45;50.80;101827.88;5070258;28;20002;-52
2022/07/19 06:57:44;;;;;;;;;;;;;;;22.49;50.70;101818.53;5067124;28;19916;-54
2022/07/19 07:00:10;;;;;;;;;;;;;;;22.56;50.50;101817.97;5074928;28;20291;-55
2022/07/19 07:02:36;;;;;;;;;;;;;;;22.59;50.48;101823.06;5070692;28;19967;-55
2022/07/19 07:05:01;;;;;;;;;;;;;;;22.63;50.29;101825.31;5066589;28;19940;-52
2022/07/19 07:07:27;;;;;;;;;;;;;;;22.67;50.41;101817.81;5069293;28;19925;-52
2022/07/19 07:09:52;;;;;;;;;;;;;;;22.70;50.27;101825.59;5070362;28;19920;-52
2022/07/19 07:12:18;;;;;;;;;;;;;;;22.76;50.00;101826.84;5065688;28;20397;-52
2022/07/19 07:14:43;;;;;;;;;;;;;;;22.79;50.32;101824.72;5070962;28;19920;-53
2022/07/19 07:17:08;;;;;;;;;;;;;;;22.82;50.09;101824.44;5069123;28;19919;-56
2022/07/19 07:19:33;;;;;;;;;;;;;;;22.88;50.11;101824.88;5071510;28;20264;-52
2022/07/19 07:22:00;;;;;;;;;;;;;;;22.94;50.02;101827.84;5065927;28;19920;-52
2022/07/19 07:24:26;;;;;;;;;;;;;;;22.98;49.89;101826.56;5068949;28;20341;-53
2022/07/19 07:26:51;;;;;;;;;;;;;;;23.04;49.73;101827.81;5069424;28;19912;-53
2022/07/19 07:29:17;;;;;;;;;;;;;;;23.08;49.35;101821.16;5071846;28;19924;-54
2022/07/19 07:31:42;;;;;;;;;;;;;;;23.14;48.98;101828.63;5067709;28;19950;-52
2022/07/19 07:34:07;;;;;;;;;;;;;;;23.21;48.65;101820.88;5071935;28;19912;-52
2022/07/19 07:36:33;;;;;;;;;;;;;;;23.27;48.42;101822.97;5069036;28;19924;-54
2022/07/19 07:38:58;;;;;;;;;;;;;;;23.35;48.18;101824.94;5068609;28;19913;-53
2022/07/19 07:41:23;;;;;;;;;;;;;;;23.40;48.08;101829.88;5067345;28;19923;-53
2022/07/19 07:43:49;;;;;;;;;;;;;;;23.45;47.79;101827.56;5069653;28;19920;-55
2022/07/19 07:46:14;;;;;;;;;;;;;;;23.48;47.75;101827.28;5054378;28;19920;-52
2022/07/19 07:48:39;;;;;;;;;;;;;;;23.54;47.86;101825.84;5070027;28;19924;-53
2022/07/19 07:51:04;;;;;;;;;;;;;;;23.57;47.64;101833.59;5076350;28;20002;-52
2022/07/19 07:53:30;;;;;;;;;;;;;;;23.63;47.34;101833.03;5069819;28;20006;-54
2022/07/19 07:55:55;;;;;;;;;;;;;;;23.68;46.86;101836.09;5064624;28;19958;-54
2022/07/19 07:58:21;;;;;;;;;;;;;;;23.76;46.51;101838.03;5069323;28;19994;-52
2022/07/19 08:00:46;;;;;;;;;;;;;;;23.84;46.58;101840.84;5070482;28;19997;-54
2022/07/19 08:03:12;;;;;;;;;;;;;;;23.92;45.93;101840.09;5075127;28;19916;-55
2022/07/19 08:05:37;;;;;;;;;;;;;;;24.00;45.67;101840.19;5076155;28;19919;-53
2022/07/19 08:08:03;;;;;;;;;;;;;;;24.11;45.08;101841.00;5076472;28;20015;-53
2022/07/19 08:10:32;;;;;;;;;;;;;;;24.18;44.88;101839.38;5074452;28;20303;-52
2022/07/19 08:12:57;;;;;;;;;;;;;;;24.24;44.72;101841.47;5076839;28;20441;-53
2022/07/19 08:15:23;;;;;;;;;;;;;;;24.32;44.53;101838.84;5071279;28;19951;-52
2022/07/19 08:17:48;;;;;;;;;;;;;;;24.34;44.20;101844.94;5071901;28;20015;-53
2022/07/19 08:20:13;;;;;;;;;;;;;;;24.35;44.26;101837.72;5061275;28;20015;-52
2022/07/19 08:22:39;;;;;;;;;;;;;;;24.36;44.26;101842.06;5072109;28;20387;-53
2022/07/19 08:25:04;;;;;;;;;;;;;;;24.37;44.17;101837.56;5076811;28;19912;-55
2022/07/19 08:27:30;;;;;;;;;;;;;;;24.38;44.24;101837.38;5075114;28;19923;-55
2022/07/19 08:29:55;;;;;;;;;;;;;;;24.39;43.96;101838.25;5069583;28;19923;-54
2022/07/19 08:32:21;;;;;;;;;;;;;;;24.41;43.85;101836.25;5074806;28;19962;-54
2022/07/19 08:34:46;;;;;;;;;;;;;;;24.46;43.86;101842.00;5071485;28;19916;-53
2022/07/19 08:37:11;;;;;;;;;;;;;;;24.51;43.59;101837.84;5071421;28;19916;-52
2022/07/19 08:39:36;;;;;;;;;;;;;;;24.57;43.80;101838.25;5076773;28;19923;-55
2022/07/19 08:42:02;;;;;;;;;;;;;;;24.59;43.48;101829.00;5066233;28;19930;-53
2022/07/19 08:44:28;;;;;;;;;;;;;;;24.66;43.42;101830.09;5068419;28;19966;-53
2022/07/19 08:46:54;;;;;;;;;;;;;;;24.70;43.31;101827.97;5075754;28;19982;-55
2022/07/19 08:49:20;;;;;;;;;;;;;;;24.71;43.20;101831.50;5074024;28;20402;-55
2022/07/19 08:51:47;;;;;;;;;;;;;;;24.73;43.25;101829.50;5070495;28;20030;-54
2022/07/19 08:54:12;;;;;;;;;;;;;;;24.75;43.49;101835.56;5071950;28;19909;-55
2022/07/19 08:59:24;;;;;;;;;;;;;;;24.83;43.51;101819.50;5072165;28;19919;-54
2022/07/19 09:01:50;;;;;;;;;;;;;;;24.86;43.67;101829.94;5071325;28;20283;-53
2022/07/19 09:04:16;;;;;;;;;;;;;;;24.90;43.47;101820.53;5071617;28;20032;-56
2022/07/19 09:06:42;;;;;;;;;;;;;;;24.96;43.47;101824.44;5075542;28;19947;-54
2022/07/19 09:09:07;;;;;;;;;;;;;;;25.02;43.23;101828.38;5071250;28;19969;-52
2022/07/19 09:11:48;;;;;;;;;;;;;;;25.03;43.16;101814.75;5070347;28;19923;-53
2022/07/19 09:14:15;;;;;;;;;;;;;;;25.06;43.04;101814.44;5077770;28;19946;-52
2022/07/19 09:16:50;;;;;;;;;;;;;;;25.10;43.05;101809.56;5074585;28;20397;-53
2022/07/19 09:19:16;;;;;;;;;;;;;;;25.17;43.00;101816.03;5068661;28;19943;-54
2022/07/19 09:22:04;;;;;;;;;;;;;;;25.20;43.00;101815.66;5076622;28;19912;-52
2022/07/19 09:24:30;;;;;;;;;;;;;;;25.25;42.90;101815.22;5069283;28;19908;-52
2022/07/19 09:26:57;;;;;;;;;;;;;;;25.26;42.90;101816.88;5074731;28;19912;-52
2022/07/19 09:29:22;;;;;;;;;;;;;;;25.27;42.94;101811.34;5067994;28;20961;-56
2022/07/19 09:31:57;;;;;;;;;;;;;;;25.31;42.74;101819.13;5071595;28;19962;-52
2022/07/19 09:34:29;;;;;;;;;;;;;;;25.38;42.59;101809.38;5079225;28;19996;-53
2022/07/19 09:37:11;;;;;;;;;;;;;;;25.42;42.64;101808.09;5061617;28;20391;-53
2022/07/19 09:39:41;;;;;;;;;;;;;;;25.44;42.61;101799.84;5070880;28;19912;-55
2022/07/19 09:42:06;;;;;;;;;;;;;;;25.46;42.41;101804.06;5070626;28;19912;-53
2022/07/19 09:44:31;;;;;;;;;;;;;;;25.51;42.39;101803.59;5070225;28;19920;-52
2022/07/19 09:46:57;;;;;;;;;;;;;;;25.53;42.25;101807.78;5070531;28;19960;-56
2022/07/19 09:49:22;;;;;;;;;;;;;;;25.59;42.19;101810.84;5074283;28;19916;-53
2022/07/19 09:51:49;;;;;;;;;;;;;;;25.61;42.12;101801.59;5072081;28;19913;-53
2022/07/19 09:54:16;;;;;;;;;;;;;;;25.64;42.14;101795.88;5075389;28;19912;-53
2022/07/19 09:56:43;;;;;;;;;;;;;;;25.69;41.81;101803.47;5071370;28;19919;-53
2022/07/19 09:59:08;;;;;;;;;;;;;;;25.73;42.00;101799.44;5072394;28;19912;-53
2022/07/19 10:01:34;;;;;;;;;;;;;;;25.75;41.91;101800.13;5071714;28;19913;-57
2022/07/19 10:04:06;;;;;;;;;;;;;;;25.78;41.74;101791.72;5052164;28;19954;-56
2022/07/19 10:06:32;;;;;;;;;;;;;;;25.85;41.46;101794.63;5071845;28;19912;-53
2022/07/19 10:08:58;;;;;;;;;;;;;;;25.90;41.46;101783.31;5065768;28;20338;-58
2022/07/19 10:11:24;;;;;;;;;;;;;;;25.92;41.28;101781.31;5068240;28;19912;-53
2022/07/19 10:13:50;;;;;;;;;;;;;;;25.95;41.18;101776.44;5073515;22;19925;-56
2022/07/19 10:16:18;;;;;;;;;;;;;;;25.99;41.05;101771.53;5053009;28;19930;-54
2022/07/19 10:18:51;;;;;;;;;;;;;;;26.03;40.77;101767.50;5053960;28;19916;-54
2022/07/19 10:21:17;;;;;;;;;;;;;;;26.10;40.77;101768.50;5046140;28;19913;-54
2022/07/19 10:23:52;;;;;;;;;;;;;;;26.15;40.85;101763.50;5059501;28;19978;-55
2022/07/19 10:26:43;;;;;;;;;;;;;;;26.21;40.65;101774.66;5050520;28;22126;-55
2022/07/19 10:29:10;;;;;;;;;;;;;;;26.25;40.40;101767.88;5050130;28;19917;-54
2022/07/19 10:31:35;;;;;;;;;;;;;;;26.31;40.52;101759.13;5049563;28;19983;-55
2022/07/19 10:34:02;;;;;;;;;;;;;;;26.37;40.48;101760.31;5042588;28;19916;-53
2022/07/19 10:36:34;;;;;;;;;;;;;;;26.43;40.39;101763.16;5049129;28;19913;-53
2022/07/19 10:39:18;;;;;;;;;;;;;;;26.51;40.00;101753.41;5046580;28;19944;-55
2022/07/19 10:42:02;;;;;;;;;;;;;;;26.56;39.88;101754.56;5047489;28;19916;-58
2022/07/19 10:44:27;;;;;;;;;;;;;;;26.61;39.83;101757.63;5049652;28;19917;-58
2022/07/19 10:46:52;;;;;;;;;;;;;;;26.67;39.60;101766.03;5048077;28;19916;-59
2022/07/19 10:49:36;;;;;;;;;;;;;;;26.71;39.46;101757.41;5049966;28;19928;-55
2022/07/19 10:52:20;;;;;;;;;;;;;;;26.76;39.34;101754.22;5047794;28;19931;-58
2022/07/19 10:54:45;;;;;;;;;;;;;;;26.81;39.32;101756.44;5034654;28;19912;-55
2022/07/19 10:57:10;;;;;;;;;;;;;;;26.88;38.94;101760.09;5043118;28;19921;-57
2022/07/19 10:59:40;;;;;;;;;;;;;;;26.94;38.66;101764.84;5043108;28;19913;-56
2022/07/19 11:02:06;;;;;;;;;;;;;;;27.00;38.63;101761.41;5043917;28;20295;-55
2022/07/19 11:04:33;;;;;;;;;;;;;;;27.03;38.55;101758.38;5038949;28;19923;-55
2022/07/19 11:07:17;;;;;;;;;;;;;;;27.09;38.33;101762.25;5050473;28;19915;-58
2022/07/19 11:09:43;;;;;;;;;;;;;;;27.17;38.44;101758.66;5041402;28;20367;-56
2022/07/19 11:12:21;;;;;;;;;;;;;;;27.23;38.23;101752.59;5048627;28;20302;-56
2022/07/19 11:14:46;;;;;;;;;;;;;;;27.26;38.01;101757.66;5050962;28;19921;-55
2022/07/19 11:17:12;;;;;;;;;;;;;;;27.27;37.96;101737.72;5050725;28;20003;-55
2022/07/19 11:19:37;;;;;;;;;;;;;;;27.30;37.81;101739.22;5039059;28;20391;-56
2022/07/19 11:22:02;;;;;;;;;;;;;;;27.35;37.75;101736.84;5034288;28;19955;-55
2022/07/19 11:24:28;;;;;;;;;;;;;;;27.42;37.56;101734.28;5052011;28;20015;-55
2022/07/19 11:26:53;;;;;;;;;;;;;;;27.52;37.58;101734.91;5044411;28;19917;-54
2022/07/19 11:29:20;;;;;;;;;;;;;;;27.60;37.17;101729.47;5053732;28;20306;-54
2022/07/19 11:31:46;;;;;;;;;;;;;;;27.70;37.42;101726.53;5045980;28;19921;-55
2022/07/19 11:34:11;;;;;;;;;;;;;;;27.77;37.16;101721.25;5044139;28;19913;-55
2022/07/19 11:36:37;;;;;;;;;;;;;;;27.83;36.91;101729.47;5038354;28;19917;-52
2022/07/19 11:39:03;;;;;;;;;;;;;;;27.91;36.84;101730.44;5045798;28;19923;-54
2022/07/19 11:41:30;;;;;;;;;;;;;;;27.98;36.93;101732.25;5045423;28;19939;-54
2022/07/19 11:43:58;;;;;;;;;;;;;;;28.05;37.01;101731.53;5045558;28;19975;-55
2022/07/19 11:46:26;;;;;;;;;;;;;;;28.12;36.95;101729.81;5044968;28;19919;-55
2022/07/19 11:48:55;;;;;;;;;;;;;;;28.22;36.51;101724.97;5043539;28;20260;-58
2022/07/19 11:51:21;;;;;;;;;;;;;;;28.27;36.71;101728.00;5041594;28;19916;-55
2022/07/19 11:53:48;;;;;;;;;;;;;;;28.31;36.29;101717.63;5034990;28;19917;-56
2022/07/19 11:56:18;;;;;;;;;;;;;;;28.37;36.06;101721.47;5046121;28;19913;-56
2022/07/19 11:58:44;;;;;;;;;;;;;;;28.40;35.91;101718.41;5048556;28;19920;-57
2022/07/19 12:01:10;;;;;;;;;;;;;;;28.41;35.87;101712.81;5046858;28;19928;-56
2022/07/19 12:03:36;;;;;;;;;;;;;;;28.44;35.83;101717.03;5048222;28;19916;-55
2022/07/19 12:06:05;;;;;;;;;;;;;;;28.51;35.74;101722.53;5048696;28;19927;-55
2022/07/19 12:08:51;;;;;;;;;;;;;;;28.57;35.79;101722.63;5049501;28;19967;-55
2022/07/19 12:11:20;;;;;;;;;;;;;;;28.65;35.42;101729.00;5047485;28;19955;-56
2022/07/19 12:13:46;;;;;;;;;;;;;;;28.69;35.45;101720.31;5045263;28;19973;-56
2022/07/19 12:16:13;;;;;;;;;;;;;;;28.75;35.39;101713.34;5048340;28;19920;-56
2022/07/19 12:18:41;;;;;;;;;;;;;;;28.82;35.49;101711.56;5047760;28;19920;-56
2022/07/19 12:21:25;;;;;;;;;;;;;;;28.90;35.30;101716.91;5052093;28;19920;-56
2022/07/19 12:24:10;;;;;;;;;;;;;;;28.99;34.63;101719.50;5050624;28;19913;-56
2022/07/19 12:26:35;;;;;;;;;;;;;;;29.01;34.78;101718.31;5048915;28;19959;-57
2022/07/19 12:29:01;;;;;;;;;;;;;;;29.05;34.37;101716.06;5050500;28;19921;-56
2022/07/19 12:31:26;;;;;;;;;;;;;;;29.12;34.46;101719.69;5046377;28;19917;-58
2022/07/19 12:33:59;;;;;;;;;;;;;;;29.17;34.34;101714.53;5048211;28;20353;-56